createdAt,value
2018-05-27T06:15:11.579Z,100492.13
2018-05-27T06:16:02.250Z,100489.77
2018-05-27T06:24:06.983Z,100490.12
2018-05-27T06:29:12.549Z,100489.61
2018-05-27T06:34:17.963Z,100491.02
2018-05-27T06:39:30.281Z,100493.17
2018-05-27T06:44:38.371Z,100505.78
2018-05-27T06:49:44.165Z,100508.37
2018-05-27T06:54:51.107Z,100518.27
2018-05-27T07:00:01.903Z,100524.77
2018-05-27T07:05:08.740Z,100520.48
2018-05-27T07:07:39.392Z,100529.84
2018-05-27T07:10:09.737Z,100526.02
2018-05-27T07:12:40.102Z,100520.36
2018-05-27T07:15:11.060Z,100535.75
2018-05-27T07:17:41.582Z,100535.55
2018-05-27T07:20:12.378Z,100539.98
2018-05-27T07:22:42.568Z,100551.06
2018-05-27T07:25:12.667Z,100541.59
2018-05-27T07:27:43.088Z,100542.38
2018-05-27T07:30:14.477Z,100542.69
2018-05-27T07:32:45.693Z,100540.98
2018-05-27T07:35:16.914Z,100537.34
2018-05-27T07:37:47.767Z,100532.83
2018-05-27T07:40:18.334Z,100536.91
2018-05-27T07:42:48.805Z,100542.08
2018-05-27T07:45:19.560Z,100545.27
2018-05-27T07:47:53.250Z,100553.30
2018-05-27T07:52:59.040Z,100552.17
2018-05-27T07:58:09.937Z,100545.97
2018-05-27T08:03:16.766Z,100546.27
2018-05-27T08:08:28.628Z,100543.78
2018-05-27T08:13:34.032Z,100565.08
2018-05-27T08:18:39.401Z,100542.02
2018-05-27T08:23:45.322Z,100549.81
2018-05-27T08:28:51.033Z,100553.39
2018-05-27T08:33:56.378Z,100551.08
2018-05-27T08:39:02.277Z,100547.31
2018-05-27T08:44:11.336Z,100543.11
2018-05-27T08:49:21.736Z,100543.09
2018-05-27T08:54:39.606Z,100532.66
2018-05-27T08:59:54.947Z,100541.67
2018-05-27T09:10:37.195Z,100524.16
2018-05-27T09:15:45.181Z,100524.64
2018-05-27T09:20:51.598Z,100525.77
2018-05-27T09:25:58.000Z,100526.94
2018-05-27T09:31:05.359Z,100527.73
2018-05-27T09:36:11.415Z,100534.13
2018-05-27T09:41:17.873Z,100533.15
2018-05-27T09:46:23.256Z,100527.16
2018-05-27T09:51:29.605Z,100533.89
2018-05-27T09:56:36.057Z,100534.48
2018-05-27T10:01:41.756Z,100533.68
2018-05-27T10:06:47.359Z,100541.02
2018-05-27T10:11:52.818Z,100540.67
2018-05-27T10:16:59.211Z,100549.48
2018-05-27T10:22:04.461Z,100542.36
2018-05-27T10:27:09.798Z,100538.74
2018-05-27T10:32:15.018Z,100538.17
2018-05-27T10:37:20.360Z,100538.66
2018-05-27T10:42:25.815Z,100535.31
2018-05-27T10:47:33.251Z,100539.79
2018-05-27T10:52:38.636Z,100539.36
2018-05-27T10:57:45.002Z,100529.64
2018-05-27T11:02:50.464Z,100515.99
2018-05-27T11:08:05.950Z,100514.30
2018-05-27T11:13:12.389Z,100509.34
2018-05-27T11:23:35.060Z,100500.30
2018-05-27T11:28:51.586Z,100512.05
2018-05-27T11:33:57.060Z,100511.83
2018-05-27T11:39:05.154Z,100504.41
2018-05-27T11:44:10.575Z,100507.00
2018-05-27T11:49:24.999Z,100492.86
2018-05-27T11:54:42.482Z,100500.66
2018-05-27T11:59:48.833Z,100498.23
2018-05-27T12:04:56.077Z,100492.69
2018-05-27T12:10:05.387Z,100480.14
2018-05-27T12:15:10.668Z,100487.03
2018-05-27T12:20:16.011Z,100491.72
2018-05-27T12:25:22.325Z,100490.09
2018-05-27T12:30:27.815Z,100481.08
2018-05-27T12:35:33.243Z,100477.78
2018-05-27T12:40:39.291Z,100477.22
2018-05-27T12:45:44.862Z,100483.94
2018-05-27T12:50:55.409Z,100480.05
2018-05-27T12:56:00.891Z,100479.13
2018-05-27T13:01:05.998Z,100486.09
2018-05-27T13:06:11.252Z,100479.77
2018-05-27T13:11:16.487Z,100472.25
2018-05-27T13:16:29.437Z,100479.67
2018-05-27T13:21:34.843Z,100484.14
2018-05-27T13:26:40.617Z,100475.59
2018-05-27T13:31:46.023Z,100468.57
2018-05-27T13:36:51.472Z,100469.45
2018-05-27T13:41:56.776Z,100474.20
2018-05-27T13:47:02.106Z,100470.81
2018-05-27T13:52:07.235Z,100471.70
2018-05-27T13:57:12.898Z,100473.81
2018-05-27T14:02:18.193Z,100474.24
2018-05-27T14:07:23.530Z,100472.48
2018-05-27T16:07:26.977Z,100481.66
2018-05-27T16:12:33.797Z,100484.31
2018-05-27T16:17:38.914Z,100494.56
2018-05-27T16:22:43.994Z,100500.17
2018-05-27T16:27:49.879Z,100501.13
2018-05-27T16:32:54.942Z,100506.95
2018-05-27T16:38:02.032Z,100511.48
2018-05-27T16:43:07.411Z,100517.86
2018-05-27T16:48:14.005Z,100524.61
2018-05-27T16:53:18.958Z,100521.90
2018-05-27T16:58:23.806Z,100526.89
2018-05-27T17:03:29.047Z,100526.81
2018-05-27T17:08:34.094Z,100531.38
2018-05-27T17:13:39.824Z,100535.45
2018-05-27T17:18:44.731Z,100539.41
2018-05-27T17:23:49.564Z,100547.77
2018-05-27T17:28:54.351Z,100550.55
2018-05-27T17:33:59.934Z,100547.10
2018-05-27T17:39:06.263Z,100555.85
2018-05-27T17:44:12.483Z,100557.17
2018-05-27T17:49:17.874Z,100577.97
2018-05-27T17:54:23.657Z,100590.96
2018-05-27T17:59:28.406Z,100594.70
2018-05-27T18:04:34.783Z,100601.15
2018-05-27T18:09:39.516Z,100609.18
2018-05-27T18:14:46.524Z,100613.71
2018-05-27T18:19:51.973Z,100627.36
2018-05-27T18:24:57.876Z,100638.69
2018-05-27T18:30:04.254Z,100659.08
2018-05-27T18:35:09.387Z,100661.70
2018-05-27T18:40:13.947Z,100672.05
2018-05-27T18:45:19.075Z,100673.14
2018-05-27T18:50:24.744Z,100684.69
2018-05-27T18:55:30.700Z,100686.11
2018-05-27T19:00:36.920Z,100687.23
2018-05-27T19:05:46.046Z,100695.05
2018-05-27T19:10:53.409Z,100691.03
2018-05-27T19:15:58.696Z,100688.40
2018-05-27T19:21:05.059Z,100695.11
2018-05-27T19:26:10.435Z,100695.36
2018-05-27T19:31:19.602Z,100695.45
2018-05-27T19:36:25.177Z,100689.18
2018-05-27T19:41:31.651Z,100683.20
2018-05-27T19:46:37.202Z,100677.37
2018-05-27T19:51:42.940Z,100676.39
2018-05-27T19:56:48.254Z,100672.22
2018-05-27T20:01:53.635Z,100675.84
2018-05-27T20:06:59.078Z,100673.20
2018-05-27T20:12:04.530Z,100671.48
2018-05-27T20:17:09.800Z,100664.73
2018-05-27T20:22:15.411Z,100670.80
2018-05-27T20:27:20.518Z,100664.13
2018-05-27T20:32:27.010Z,100661.07
2018-05-27T20:37:33.219Z,100666.80
2018-05-27T20:42:38.634Z,100661.81
2018-05-27T20:47:43.887Z,100657.95
2018-05-27T20:52:49.349Z,100657.20
2018-05-27T20:57:54.864Z,100658.63
2018-05-27T21:03:00.381Z,100654.97
2018-05-27T21:08:05.851Z,100650.03
2018-05-27T21:13:11.172Z,100642.33
2018-05-27T21:18:16.656Z,100638.70
2018-05-27T21:23:21.962Z,100620.45
2018-05-27T21:28:27.318Z,100619.39
2018-05-27T21:33:32.960Z,100610.43
2018-05-27T21:38:38.282Z,100609.90
2018-05-27T21:43:43.792Z,100604.17
2018-05-27T21:48:49.273Z,100603.05
2018-05-27T21:53:54.746Z,100598.11
2018-05-27T21:59:00.138Z,100585.62
2018-05-27T22:04:08.518Z,100585.16
2018-05-27T22:09:14.766Z,100576.05
2018-05-27T22:14:20.353Z,100580.44
2018-05-27T22:19:25.732Z,100578.22
2018-05-27T22:24:31.058Z,100580.68
2018-05-27T22:29:36.452Z,100569.91
2018-05-27T22:34:41.993Z,100574.30
2018-05-27T22:39:47.319Z,100564.02
2018-05-27T22:44:53.834Z,100559.64
2018-05-27T22:49:59.406Z,100552.86
2018-05-27T22:55:04.853Z,100545.11
2018-05-27T23:00:09.553Z,100541.89
2018-05-27T23:05:14.729Z,100551.75
2018-05-27T23:10:20.121Z,100552.48
2018-05-27T23:15:25.495Z,100543.44
2018-05-27T23:20:30.856Z,100538.48
2018-05-27T23:25:36.255Z,100542.15
2018-05-27T23:30:41.839Z,100546.95
2018-05-27T23:35:47.037Z,100552.17
2018-05-27T23:40:52.570Z,100552.19
2018-05-27T23:45:58.015Z,100540.33
2018-05-27T23:51:03.678Z,100536.66
2018-05-27T23:56:09.022Z,100537.33
